sensor_id;sensor_type;location;lat;lon;timestamp;P1;durP1;ratioP1;P2;durP2;ratioP2
72601;SDS011;60644;55.858;37.390;2023-04-03T00:01:14;19.73;;;6.90;;
72601;SDS011;60644;55.858;37.390;2023-04-03T00:03:40;14.47;;;6.33;;
72601;SDS011;60644;55.858;37.390;2023-04-03T00:06:09;13.60;;;6.05;;
72601;SDS011;60644;55.858;37.390;2023-04-03T00:08:36;16.02;;;6.40;;
72601;SDS011;60644;55.858;37.390;2023-04-03T00:11:01;14.07;;;5.77;;
72601;SDS011;60644;55.858;37.390;2023-04-03T00:13:27;17.95;;;6.03;;
72601;SDS011;60644;55.858;37.390;2023-04-03T00:15:53;20.37;;;6.60;;
72601;SDS011;60644;55.858;37.390;2023-04-03T00:18:19;20.58;;;7.78;;
72601;SDS011;60644;55.858;37.390;2023-04-03T00:20:44;19.67;;;7.03;;
72601;SDS011;60644;55.858;37.390;2023-04-03T00:23:10;17.55;;;6.93;;
72601;SDS011;60644;55.858;37.390;2023-04-03T00:25:35;17.93;;;6.90;;
72601;SDS011;60644;55.858;37.390;2023-04-03T00:28:02;14.93;;;6.05;;
72601;SDS011;60644;55.858;37.390;2023-04-03T00:30:28;13.60;;;6.28;;
72601;SDS011;60644;55.858;37.390;2023-04-03T00:32:53;18.77;;;6.43;;
72601;SDS011;60644;55.858;37.390;2023-04-03T00:35:20;21.97;;;6.53;;
72601;SDS011;60644;55.858;37.390;2023-04-03T00:37:46;19.63;;;7.28;;
72601;SDS011;60644;55.858;37.390;2023-04-03T00:40:12;22.45;;;6.70;;
72601;SDS011;60644;55.858;37.390;2023-04-03T00:42:41;16.15;;;6.70;;
72601;SDS011;60644;55.858;37.390;2023-04-03T00:47:36;19.60;;;8.18;;
72601;SDS011;60644;55.858;37.390;2023-04-03T00:50:02;16.75;;;6.80;;
72601;SDS011;60644;55.858;37.390;2023-04-03T00:52:29;15.48;;;6.68;;
72601;SDS011;60644;55.858;37.390;2023-04-03T00:54:57;16.33;;;6.57;;
72601;SDS011;60644;55.858;37.390;2023-04-03T00:57:23;20.63;;;6.40;;
72601;SDS011;60644;55.858;37.390;2023-04-03T00:59:50;14.00;;;6.70;;
72601;SDS011;60644;55.858;37.390;2023-04-03T01:02:17;15.13;;;7.32;;
72601;SDS011;60644;55.858;37.390;2023-04-03T01:04:43;18.40;;;6.90;;
72601;SDS011;60644;55.858;37.390;2023-04-03T01:09:37;19.95;;;7.18;;
72601;SDS011;60644;55.858;37.390;2023-04-03T01:12:16;17.30;;;7.45;;
72601;SDS011;60644;55.858;37.390;2023-04-03T01:14:43;21.20;;;8.05;;
72601;SDS011;60644;55.858;37.390;2023-04-03T01:22:42;20.45;;;7.63;;
72601;SDS011;60644;55.858;37.390;2023-04-03T01:25:09;19.52;;;8.50;;
72601;SDS011;60644;55.858;37.390;2023-04-03T01:27:35;21.27;;;8.30;;
72601;SDS011;60644;55.858;37.390;2023-04-03T01:30:00;18.27;;;8.65;;
72601;SDS011;60644;55.858;37.390;2023-04-03T01:32:28;16.25;;;7.43;;
72601;SDS011;60644;55.858;37.390;2023-04-03T01:34:54;24.23;;;8.15;;
72601;SDS011;60644;55.858;37.390;2023-04-03T01:37:20;15.95;;;7.20;;
72601;SDS011;60644;55.858;37.390;2023-04-03T01:39:46;19.80;;;8.15;;
72601;SDS011;60644;55.858;37.390;2023-04-03T01:42:12;15.57;;;7.38;;
72601;SDS011;60644;55.858;37.390;2023-04-03T01:44:41;17.33;;;7.90;;
72601;SDS011;60644;55.858;37.390;2023-04-03T01:47:07;13.82;;;6.93;;
72601;SDS011;60644;55.858;37.390;2023-04-03T01:49:33;17.55;;;7.82;;
72601;SDS011;60644;55.858;37.390;2023-04-03T01:51:59;15.98;;;7.90;;
72601;SDS011;60644;55.858;37.390;2023-04-03T01:54:24;15.90;;;7.82;;
72601;SDS011;60644;55.858;37.390;2023-04-03T01:56:50;16.52;;;8.02;;
72601;SDS011;60644;55.858;37.390;2023-04-03T01:59:17;17.03;;;8.17;;
72601;SDS011;60644;55.858;37.390;2023-04-03T02:01:44;17.50;;;9.13;;
72601;SDS011;60644;55.858;37.390;2023-04-03T02:04:11;22.42;;;10.38;;
72601;SDS011;60644;55.858;37.390;2023-04-03T02:06:36;17.13;;;9.65;;
72601;SDS011;60644;55.858;37.390;2023-04-03T02:09:02;20.70;;;9.60;;
72601;SDS011;60644;55.858;37.390;2023-04-03T02:11:29;19.50;;;9.25;;
72601;SDS011;60644;55.858;37.390;2023-04-03T02:13:55;18.77;;;9.63;;
72601;SDS011;60644;55.858;37.390;2023-04-03T02:16:21;18.40;;;9.90;;
72601;SDS011;60644;55.858;37.390;2023-04-03T02:18:48;22.65;;;11.35;;
72601;SDS011;60644;55.858;37.390;2023-04-03T02:21:14;20.63;;;10.40;;
72601;SDS011;60644;55.858;37.390;2023-04-03T02:23:39;16.15;;;8.73;;
72601;SDS011;60644;55.858;37.390;2023-04-03T02:26:06;16.70;;;9.13;;
72601;SDS011;60644;55.858;37.390;2023-04-03T02:28:32;19.45;;;9.30;;
72601;SDS011;60644;55.858;37.390;2023-04-03T02:30:58;20.15;;;10.68;;
72601;SDS011;60644;55.858;37.390;2023-04-03T02:33:24;20.88;;;10.75;;
72601;SDS011;60644;55.858;37.390;2023-04-03T02:35:53;21.67;;;11.00;;
72601;SDS011;60644;55.858;37.390;2023-04-03T02:38:21;19.98;;;10.25;;
72601;SDS011;60644;55.858;37.390;2023-04-03T02:40:47;20.83;;;10.35;;
72601;SDS011;60644;55.858;37.390;2023-04-03T02:43:13;21.10;;;10.27;;
72601;SDS011;60644;55.858;37.390;2023-04-03T02:45:39;19.40;;;9.60;;
72601;SDS011;60644;55.858;37.390;2023-04-03T02:48:05;22.13;;;9.70;;
72601;SDS011;60644;55.858;37.390;2023-04-03T02:50:31;20.90;;;11.02;;
72601;SDS011;60644;55.858;37.390;2023-04-03T02:52:57;19.35;;;10.43;;
72601;SDS011;60644;55.858;37.390;2023-04-03T02:55:22;19.90;;;10.00;;
72601;SDS011;60644;55.858;37.390;2023-04-03T02:57:50;22.50;;;10.10;;
72601;SDS011;60644;55.858;37.390;2023-04-03T03:00:16;22.05;;;10.40;;
72601;SDS011;60644;55.858;37.390;2023-04-03T03:02:42;20.50;;;10.63;;
72601;SDS011;60644;55.858;37.390;2023-04-03T03:05:08;22.92;;;10.82;;
72601;SDS011;60644;55.858;37.390;2023-04-03T03:07:34;18.13;;;9.55;;
72601;SDS011;60644;55.858;37.390;2023-04-03T03:09:59;20.70;;;10.27;;
72601;SDS011;60644;55.858;37.390;2023-04-03T03:12:26;23.55;;;10.23;;
72601;SDS011;60644;55.858;37.390;2023-04-03T03:14:51;21.83;;;10.13;;
72601;SDS011;60644;55.858;37.390;2023-04-03T03:17:17;22.52;;;10.68;;
72601;SDS011;60644;55.858;37.390;2023-04-03T03:19:43;19.45;;;9.52;;
72601;SDS011;60644;55.858;37.390;2023-04-03T03:22:08;23.17;;;9.93;;
72601;SDS011;60644;55.858;37.390;2023-04-03T03:24:34;17.10;;;9.57;;
72601;SDS011;60644;55.858;37.390;2023-04-03T03:26:59;18.90;;;7.87;;
72601;SDS011;60644;55.858;37.390;2023-04-03T03:29:25;16.73;;;8.60;;
72601;SDS011;60644;55.858;37.390;2023-04-03T03:31:51;17.00;;;8.70;;
72601;SDS011;60644;55.858;37.390;2023-04-03T03:34:16;21.50;;;9.93;;
72601;SDS011;60644;55.858;37.390;2023-04-03T03:36:42;19.70;;;8.97;;
72601;SDS011;60644;55.858;37.390;2023-04-03T03:39:08;19.95;;;9.63;;
72601;SDS011;60644;55.858;37.390;2023-04-03T03:41:34;20.13;;;9.07;;
72601;SDS011;60644;55.858;37.390;2023-04-03T03:44:00;17.60;;;9.10;;
72601;SDS011;60644;55.858;37.390;2023-04-03T03:46:28;23.85;;;10.07;;
72601;SDS011;60644;55.858;37.390;2023-04-03T03:48:53;20.67;;;9.87;;
72601;SDS011;60644;55.858;37.390;2023-04-03T03:51:19;19.00;;;9.13;;
72601;SDS011;60644;55.858;37.390;2023-04-03T03:53:45;20.27;;;9.47;;
72601;SDS011;60644;55.858;37.390;2023-04-03T03:56:14;17.17;;;9.05;;
72601;SDS011;60644;55.858;37.390;2023-04-03T03:58:40;18.65;;;8.18;;
72601;SDS011;60644;55.858;37.390;2023-04-03T04:01:06;18.17;;;9.63;;
72601;SDS011;60644;55.858;37.390;2023-04-03T04:03:37;17.80;;;8.65;;
72601;SDS011;60644;55.858;37.390;2023-04-03T04:06:03;16.80;;;8.75;;
72601;SDS011;60644;55.858;37.390;2023-04-03T04:08:28;15.30;;;8.02;;
72601;SDS011;60644;55.858;37.390;2023-04-03T04:10:54;17.03;;;8.70;;
72601;SDS011;60644;55.858;37.390;2023-04-03T04:13:20;14.25;;;8.18;;
72601;SDS011;60644;55.858;37.390;2023-04-03T04:15:46;19.00;;;8.77;;
72601;SDS011;60644;55.858;37.390;2023-04-03T04:18:13;18.10;;;9.10;;
72601;SDS011;60644;55.858;37.390;2023-04-03T04:20:41;16.58;;;8.90;;
72601;SDS011;60644;55.858;37.390;2023-04-03T04:23:07;16.35;;;9.52;;
72601;SDS011;60644;55.858;37.390;2023-04-03T04:25:34;17.88;;;10.05;;
72601;SDS011;60644;55.858;37.390;2023-04-03T04:27:59;17.33;;;8.73;;
72601;SDS011;60644;55.858;37.390;2023-04-03T04:30:25;19.05;;;9.70;;
72601;SDS011;60644;55.858;37.390;2023-04-03T04:32:52;18.55;;;10.15;;
72601;SDS011;60644;55.858;37.390;2023-04-03T04:35:17;17.85;;;9.60;;
72601;SDS011;60644;55.858;37.390;2023-04-03T04:37:46;16.80;;;9.98;;
72601;SDS011;60644;55.858;37.390;2023-04-03T04:40:12;22.10;;;12.17;;
72601;SDS011;60644;55.858;37.390;2023-04-03T04:42:38;20.15;;;10.50;;
72601;SDS011;60644;55.858;37.390;2023-04-03T04:45:05;20.05;;;10.18;;
72601;SDS011;60644;55.858;37.390;2023-04-03T04:47:31;20.15;;;11.10;;
72601;SDS011;60644;55.858;37.390;2023-04-03T04:49:56;19.83;;;10.27;;
72601;SDS011;60644;55.858;37.390;2023-04-03T04:52:22;21.02;;;10.57;;
72601;SDS011;60644;55.858;37.390;2023-04-03T04:54:48;19.95;;;10.43;;
72601;SDS011;60644;55.858;37.390;2023-04-03T04:57:14;20.20;;;9.90;;
72601;SDS011;60644;55.858;37.390;2023-04-03T04:59:41;22.48;;;10.27;;
72601;SDS011;60644;55.858;37.390;2023-04-03T05:02:07;16.92;;;9.48;;
72601;SDS011;60644;55.858;37.390;2023-04-03T05:04:33;19.43;;;9.70;;
72601;SDS011;60644;55.858;37.390;2023-04-03T05:07:04;17.20;;;9.38;;
72601;SDS011;60644;55.858;37.390;2023-04-03T05:09:33;18.27;;;9.30;;
72601;SDS011;60644;55.858;37.390;2023-04-03T05:12:00;17.45;;;9.20;;
72601;SDS011;60644;55.858;37.390;2023-04-03T05:14:38;16.38;;;9.45;;
72601;SDS011;60644;55.858;37.390;2023-04-03T05:17:07;18.43;;;9.33;;
72601;SDS011;60644;55.858;37.390;2023-04-03T05:19:35;18.60;;;9.40;;
72601;SDS011;60644;55.858;37.390;2023-04-03T05:22:03;20.92;;;10.20;;
72601;SDS011;60644;55.858;37.390;2023-04-03T05:24:29;19.50;;;9.60;;
72601;SDS011;60644;55.858;37.390;2023-04-03T05:26:55;18.27;;;10.38;;
72601;SDS011;60644;55.858;37.390;2023-04-03T05:29:22;18.10;;;9.50;;
72601;SDS011;60644;55.858;37.390;2023-04-03T05:31:49;17.60;;;9.75;;
72601;SDS011;60644;55.858;37.390;2023-04-03T05:34:16;16.25;;;9.32;;
72601;SDS011;60644;55.858;37.390;2023-04-03T05:36:42;17.02;;;9.77;;
72601;SDS011;60644;55.858;37.390;2023-04-03T05:39:09;22.85;;;11.35;;
72601;SDS011;60644;55.858;37.390;2023-04-03T05:41:38;19.10;;;10.85;;
72601;SDS011;60644;55.858;37.390;2023-04-03T05:44:04;20.10;;;10.02;;
72601;SDS011;60644;55.858;37.390;2023-04-03T05:46:29;16.90;;;9.55;;
72601;SDS011;60644;55.858;37.390;2023-04-03T05:48:58;20.52;;;10.32;;
72601;SDS011;60644;55.858;37.390;2023-04-03T05:51:30;17.60;;;10.02;;
72601;SDS011;60644;55.858;37.390;2023-04-03T05:54:06;18.70;;;9.48;;
72601;SDS011;60644;55.858;37.390;2023-04-03T05:56:32;19.27;;;9.35;;
72601;SDS011;60644;55.858;37.390;2023-04-03T05:58:58;20.27;;;10.53;;
72601;SDS011;60644;55.858;37.390;2023-04-03T06:01:24;19.67;;;9.75;;
72601;SDS011;60644;55.858;37.390;2023-04-03T06:03:50;19.23;;;10.10;;
72601;SDS011;60644;55.858;37.390;2023-04-03T06:06:17;20.38;;;10.18;;
72601;SDS011;60644;55.858;37.390;2023-04-03T06:08:43;19.58;;;10.05;;
72601;SDS011;60644;55.858;37.390;2023-04-03T06:11:10;18.17;;;9.88;;
72601;SDS011;60644;55.858;37.390;2023-04-03T06:13:36;17.80;;;9.40;;
72601;SDS011;60644;55.858;37.390;2023-04-03T06:16:02;20.55;;;10.82;;
72601;SDS011;60644;55.858;37.390;2023-04-03T06:18:29;21.58;;;10.57;;
72601;SDS011;60644;55.858;37.390;2023-04-03T06:20:55;20.05;;;10.35;;
72601;SDS011;60644;55.858;37.390;2023-04-03T06:23:21;19.40;;;9.83;;
72601;SDS011;60644;55.858;37.390;2023-04-03T06:25:46;17.30;;;10.43;;
72601;SDS011;60644;55.858;37.390;2023-04-03T06:28:12;18.60;;;10.50;;
72601;SDS011;60644;55.858;37.390;2023-04-03T06:30:38;18.67;;;10.27;;
72601;SDS011;60644;55.858;37.390;2023-04-03T06:33:03;21.23;;;11.27;;
72601;SDS011;60644;55.858;37.390;2023-04-03T06:35:29;20.75;;;11.18;;
72601;SDS011;60644;55.858;37.390;2023-04-03T06:37:55;20.52;;;10.80;;
72601;SDS011;60644;55.858;37.390;2023-04-03T06:40:22;23.00;;;11.17;;
72601;SDS011;60644;55.858;37.390;2023-04-03T06:42:48;22.23;;;11.00;;
72601;SDS011;60644;55.858;37.390;2023-04-03T06:45:16;19.13;;;11.40;;
72601;SDS011;60644;55.858;37.390;2023-04-03T06:47:42;23.55;;;11.73;;
72601;SDS011;60644;55.858;37.390;2023-04-03T06:50:09;20.03;;;11.33;;
72601;SDS011;60644;55.858;37.390;2023-04-03T06:52:36;21.60;;;11.35;;
72601;SDS011;60644;55.858;37.390;2023-04-03T06:55:02;22.05;;;10.80;;
72601;SDS011;60644;55.858;37.390;2023-04-03T06:57:29;21.10;;;10.02;;
72601;SDS011;60644;55.858;37.390;2023-04-03T06:59:54;19.37;;;9.50;;
72601;SDS011;60644;55.858;37.390;2023-04-03T07:02:20;19.35;;;9.77;;
72601;SDS011;60644;55.858;37.390;2023-04-03T07:04:47;20.17;;;9.85;;
72601;SDS011;60644;55.858;37.390;2023-04-03T07:07:12;22.17;;;10.40;;
72601;SDS011;60644;55.858;37.390;2023-04-03T07:09:38;21.67;;;9.75;;
72601;SDS011;60644;55.858;37.390;2023-04-03T07:12:03;21.20;;;10.00;;
72601;SDS011;60644;55.858;37.390;2023-04-03T07:14:29;19.40;;;10.00;;
72601;SDS011;60644;55.858;37.390;2023-04-03T07:16:55;17.88;;;9.50;;
72601;SDS011;60644;55.858;37.390;2023-04-03T07:19:20;19.30;;;9.33;;
72601;SDS011;60644;55.858;37.390;2023-04-03T07:21:46;23.50;;;9.90;;
72601;SDS011;60644;55.858;37.390;2023-04-03T07:24:12;21.20;;;9.90;;
72601;SDS011;60644;55.858;37.390;2023-04-03T07:26:37;20.70;;;9.93;;
72601;SDS011;60644;55.858;37.390;2023-04-03T07:29:03;17.92;;;9.82;;
72601;SDS011;60644;55.858;37.390;2023-04-03T07:31:28;18.93;;;9.60;;
72601;SDS011;60644;55.858;37.390;2023-04-03T07:33:54;19.88;;;9.45;;
72601;SDS011;60644;55.858;37.390;2023-04-03T07:36:20;20.77;;;9.70;;
72601;SDS011;60644;55.858;37.390;2023-04-03T07:38:46;19.75;;;10.10;;
72601;SDS011;60644;55.858;37.390;2023-04-03T07:41:14;19.70;;;10.03;;
72601;SDS011;60644;55.858;37.390;2023-04-03T07:43:40;21.15;;;9.98;;
72601;SDS011;60644;55.858;37.390;2023-04-03T07:46:06;20.27;;;9.88;;
72601;SDS011;60644;55.858;37.390;2023-04-03T07:48:32;21.73;;;10.80;;
72601;SDS011;60644;55.858;37.390;2023-04-03T07:51:01;20.48;;;10.25;;
72601;SDS011;60644;55.858;37.390;2023-04-03T07:53:28;17.83;;;8.97;;
72601;SDS011;60644;55.858;37.390;2023-04-03T07:55:53;22.58;;;10.77;;
72601;SDS011;60644;55.858;37.390;2023-04-03T07:58:21;23.08;;;9.35;;
72601;SDS011;60644;55.858;37.390;2023-04-03T08:00:47;21.83;;;9.80;;
72601;SDS011;60644;55.858;37.390;2023-04-03T08:06:01;24.45;;;10.18;;
72601;SDS011;60644;55.858;37.390;2023-04-03T08:08:57;21.17;;;9.15;;
72601;SDS011;60644;55.858;37.390;2023-04-03T08:11:24;20.60;;;9.95;;
72601;SDS011;60644;55.858;37.390;2023-04-03T08:13:52;17.43;;;9.03;;
72601;SDS011;60644;55.858;37.390;2023-04-03T08:16:19;18.52;;;8.98;;
72601;SDS011;60644;55.858;37.390;2023-04-03T08:18:46;20.90;;;9.70;;
72601;SDS011;60644;55.858;37.390;2023-04-03T08:21:11;18.73;;;9.00;;
72601;SDS011;60644;55.858;37.390;2023-04-03T08:23:37;20.95;;;8.48;;
72601;SDS011;60644;55.858;37.390;2023-04-03T08:26:13;18.85;;;8.23;;
72601;SDS011;60644;55.858;37.390;2023-04-03T08:28:39;18.27;;;8.07;;
72601;SDS011;60644;55.858;37.390;2023-04-03T08:31:06;17.42;;;8.63;;
72601;SDS011;60644;55.858;37.390;2023-04-03T08:33:32;17.92;;;9.57;;
72601;SDS011;60644;55.858;37.390;2023-04-03T08:35:58;21.05;;;8.50;;
72601;SDS011;60644;55.858;37.390;2023-04-03T08:38:25;18.45;;;9.07;;
72601;SDS011;60644;55.858;37.390;2023-04-03T08:41:04;18.83;;;8.80;;
72601;SDS011;60644;55.858;37.390;2023-04-03T08:43:37;16.85;;;7.95;;
72601;SDS011;60644;55.858;37.390;2023-04-03T08:46:05;18.02;;;9.18;;
72601;SDS011;60644;55.858;37.390;2023-04-03T08:48:41;13.87;;;7.90;;
72601;SDS011;60644;55.858;37.390;2023-04-03T08:51:25;17.85;;;8.93;;
72601;SDS011;60644;55.858;37.390;2023-04-03T08:56:16;19.67;;;8.73;;
72601;SDS011;60644;55.858;37.390;2023-04-03T08:58:51;17.63;;;8.85;;
72601;SDS011;60644;55.858;37.390;2023-04-03T09:03:46;18.15;;;8.80;;
72601;SDS011;60644;55.858;37.390;2023-04-03T09:06:16;19.03;;;8.97;;
72601;SDS011;60644;55.858;37.390;2023-04-03T09:08:50;20.17;;;9.57;;
72601;SDS011;60644;55.858;37.390;2023-04-03T09:11:27;18.20;;;8.85;;
72601;SDS011;60644;55.858;37.390;2023-04-03T09:14:11;19.58;;;9.02;;
72601;SDS011;60644;55.858;37.390;2023-04-03T09:16:43;20.17;;;9.13;;
72601;SDS011;60644;55.858;37.390;2023-04-03T09:19:16;18.30;;;8.88;;
72601;SDS011;60644;55.858;37.390;2023-04-03T09:21:47;22.95;;;10.40;;
72601;SDS011;60644;55.858;37.390;2023-04-03T09:24:13;23.98;;;9.77;;
72601;SDS011;60644;55.858;37.390;2023-04-03T09:26:59;19.40;;;9.07;;
72601;SDS011;60644;55.858;37.390;2023-04-03T09:29:27;18.93;;;9.63;;
72601;SDS011;60644;55.858;37.390;2023-04-03T09:31:56;24.33;;;10.65;;
72601;SDS011;60644;55.858;37.390;2023-04-03T09:34:23;21.95;;;10.07;;
72601;SDS011;60644;55.858;37.390;2023-04-03T09:36:50;23.98;;;10.63;;
72601;SDS011;60644;55.858;37.390;2023-04-03T09:39:17;24.40;;;11.60;;
72601;SDS011;60644;55.858;37.390;2023-04-03T09:41:55;25.80;;;11.13;;
72601;SDS011;60644;55.858;37.390;2023-04-03T09:44:22;20.85;;;9.95;;
72601;SDS011;60644;55.858;37.390;2023-04-03T09:46:48;20.02;;;10.73;;
72601;SDS011;60644;55.858;37.390;2023-04-03T09:49:13;27.97;;;10.73;;
72601;SDS011;60644;55.858;37.390;2023-04-03T09:51:39;21.63;;;10.88;;
72601;SDS011;60644;55.858;37.390;2023-04-03T09:56:50;23.52;;;10.55;;
72601;SDS011;60644;55.858;37.390;2023-04-03T09:59:16;25.95;;;12.10;;
72601;SDS011;60644;55.858;37.390;2023-04-03T10:01:43;19.92;;;9.90;;
72601;SDS011;60644;55.858;37.390;2023-04-03T10:06:37;26.43;;;10.80;;
72601;SDS011;60644;55.858;37.390;2023-04-03T10:09:13;21.25;;;9.98;;
72601;SDS011;60644;55.858;37.390;2023-04-03T10:11:57;23.70;;;11.05;;
72601;SDS011;60644;55.858;37.390;2023-04-03T10:14:22;24.38;;;11.52;;
72601;SDS011;60644;55.858;37.390;2023-04-03T10:16:50;22.23;;;11.00;;
72601;SDS011;60644;55.858;37.390;2023-04-03T10:22:11;19.00;;;9.27;;
72601;SDS011;60644;55.858;37.390;2023-04-03T10:27:20;17.42;;;9.45;;
72601;SDS011;60644;55.858;37.390;2023-04-03T10:34:59;19.67;;;10.20;;
72601;SDS011;60644;55.858;37.390;2023-04-03T10:37:53;22.02;;;10.45;;
72601;SDS011;60644;55.858;37.390;2023-04-03T10:40:19;19.00;;;9.57;;
72601;SDS011;60644;55.858;37.390;2023-04-03T10:42:52;23.87;;;9.37;;
72601;SDS011;60644;55.858;37.390;2023-04-03T10:53:10;15.00;;;8.32;;
72601;SDS011;60644;55.858;37.390;2023-04-03T10:55:41;13.37;;;6.33;;
72601;SDS011;60644;55.858;37.390;2023-04-03T11:00:42;12.52;;;5.43;;
72601;SDS011;60644;55.858;37.390;2023-04-03T11:03:11;14.05;;;6.10;;
72601;SDS011;60644;55.858;37.390;2023-04-03T11:05:40;11.70;;;5.97;;
72601;SDS011;60644;55.858;37.390;2023-04-03T11:10:50;12.82;;;5.93;;
72601;SDS011;60644;55.858;37.390;2023-04-03T11:13:37;12.63;;;6.03;;
72601;SDS011;60644;55.858;37.390;2023-04-03T11:16:05;13.77;;;5.40;;
72601;SDS011;60644;55.858;37.390;2023-04-03T11:18:39;11.88;;;5.10;;
72601;SDS011;60644;55.858;37.390;2023-04-03T11:21:16;12.50;;;6.27;;
72601;SDS011;60644;55.858;37.390;2023-04-03T11:23:45;14.48;;;6.28;;
72601;SDS011;60644;55.858;37.390;2023-04-03T11:26:12;16.20;;;6.70;;
72601;SDS011;60644;55.858;37.390;2023-04-03T11:28:39;17.95;;;7.47;;
72601;SDS011;60644;55.858;37.390;2023-04-03T11:31:09;21.50;;;7.15;;
72601;SDS011;60644;55.858;37.390;2023-04-03T11:36:08;22.35;;;9.30;;
72601;SDS011;60644;55.858;37.390;2023-04-03T11:38:36;19.27;;;8.27;;
72601;SDS011;60644;55.858;37.390;2023-04-03T11:41:04;18.63;;;7.33;;
72601;SDS011;60644;55.858;37.390;2023-04-03T11:43:31;16.85;;;7.60;;
72601;SDS011;60644;55.858;37.390;2023-04-03T11:45:58;20.27;;;8.75;;
72601;SDS011;60644;55.858;37.390;2023-04-03T11:50:57;15.02;;;6.90;;
72601;SDS011;60644;55.858;37.390;2023-04-03T11:55:56;18.23;;;7.68;;
72601;SDS011;60644;55.858;37.390;2023-04-03T11:58:26;22.45;;;7.15;;
72601;SDS011;60644;55.858;37.390;2023-04-03T12:00:59;18.98;;;6.90;;
72601;SDS011;60644;55.858;37.390;2023-04-03T12:08:46;15.35;;;5.85;;
72601;SDS011;60644;55.858;37.390;2023-04-03T12:23:56;15.30;;;5.73;;
72601;SDS011;60644;55.858;37.390;2023-04-03T12:26:26;13.38;;;5.28;;
72601;SDS011;60644;55.858;37.390;2023-04-03T12:28:52;14.60;;;5.13;;
72601;SDS011;60644;55.858;37.390;2023-04-03T12:31:19;19.47;;;5.90;;
72601;SDS011;60644;55.858;37.390;2023-04-03T12:33:56;14.73;;;5.80;;
72601;SDS011;60644;55.858;37.390;2023-04-03T12:42:03;15.38;;;6.07;;
72601;SDS011;60644;55.858;37.390;2023-04-03T12:44:41;15.37;;;6.57;;
72601;SDS011;60644;55.858;37.390;2023-04-03T12:47:45;17.65;;;7.57;;
72601;SDS011;60644;55.858;37.390;2023-04-03T12:50:16;18.38;;;7.25;;
72601;SDS011;60644;55.858;37.390;2023-04-03T12:52:47;14.63;;;6.38;;
72601;SDS011;60644;55.858;37.390;2023-04-03T12:55:19;16.60;;;6.88;;
72601;SDS011;60644;55.858;37.390;2023-04-03T12:57:45;15.23;;;6.60;;
72601;SDS011;60644;55.858;37.390;2023-04-03T13:02:46;14.80;;;6.07;;
72601;SDS011;60644;55.858;37.390;2023-04-03T13:05:16;19.90;;;7.70;;
72601;SDS011;60644;55.858;37.390;2023-04-03T13:07:42;19.27;;;7.27;;
72601;SDS011;60644;55.858;37.390;2023-04-03T13:12:34;17.97;;;7.63;;
72601;SDS011;60644;55.858;37.390;2023-04-03T13:15:02;14.93;;;6.90;;
72601;SDS011;60644;55.858;37.390;2023-04-03T13:17:29;19.13;;;7.72;;
72601;SDS011;60644;55.858;37.390;2023-04-03T13:19:55;24.13;;;8.70;;
72601;SDS011;60644;55.858;37.390;2023-04-03T13:22:25;15.77;;;7.93;;
72601;SDS011;60644;55.858;37.390;2023-04-03T13:24:52;18.75;;;7.32;;
72601;SDS011;60644;55.858;37.390;2023-04-03T13:27:18;19.33;;;8.10;;
72601;SDS011;60644;55.858;37.390;2023-04-03T13:29:45;17.50;;;8.10;;
72601;SDS011;60644;55.858;37.390;2023-04-03T13:32:18;16.95;;;8.88;;
72601;SDS011;60644;55.858;37.390;2023-04-03T13:34:44;20.45;;;8.02;;
72601;SDS011;60644;55.858;37.390;2023-04-03T13:37:24;19.00;;;8.23;;
72601;SDS011;60644;55.858;37.390;2023-04-03T13:40:01;18.10;;;7.68;;
72601;SDS011;60644;55.858;37.390;2023-04-03T13:42:29;12.73;;;6.63;;
72601;SDS011;60644;55.858;37.390;2023-04-03T13:47:40;12.82;;;6.07;;
72601;SDS011;60644;55.858;37.390;2023-04-03T13:52:39;12.10;;;6.10;;
72601;SDS011;60644;55.858;37.390;2023-04-03T13:55:52;11.52;;;5.60;;
72601;SDS011;60644;55.858;37.390;2023-04-03T13:57:59;12.15;;;5.55;;
72601;SDS011;60644;55.858;37.390;2023-04-03T14:02:51;12.73;;;5.00;;
72601;SDS011;60644;55.858;37.390;2023-04-03T14:05:19;12.95;;;5.18;;
72601;SDS011;60644;55.858;37.390;2023-04-03T14:07:46;11.30;;;5.32;;
72601;SDS011;60644;55.858;37.390;2023-04-03T14:10:12;18.63;;;6.00;;
72601;SDS011;60644;55.858;37.390;2023-04-03T14:12:38;12.20;;;5.35;;
72601;SDS011;60644;55.858;37.390;2023-04-03T14:15:28;12.70;;;5.25;;
72601;SDS011;60644;55.858;37.390;2023-04-03T14:17:56;16.57;;;5.43;;
72601;SDS011;60644;55.858;37.390;2023-04-03T14:20:23;12.32;;;5.25;;
72601;SDS011;60644;55.858;37.390;2023-04-03T14:22:49;10.65;;;4.97;;
72601;SDS011;60644;55.858;37.390;2023-04-03T14:25:15;10.83;;;4.70;;
72601;SDS011;60644;55.858;37.390;2023-04-03T14:27:46;11.38;;;4.72;;
72601;SDS011;60644;55.858;37.390;2023-04-03T14:32:41;14.45;;;5.35;;
72601;SDS011;60644;55.858;37.390;2023-04-03T14:35:06;14.37;;;5.07;;
72601;SDS011;60644;55.858;37.390;2023-04-03T14:37:32;12.50;;;5.78;;
72601;SDS011;60644;55.858;37.390;2023-04-03T14:39:58;12.20;;;5.17;;
72601;SDS011;60644;55.858;37.390;2023-04-03T14:42:27;13.10;;;5.22;;
72601;SDS011;60644;55.858;37.390;2023-04-03T14:44:52;12.25;;;5.80;;
72601;SDS011;60644;55.858;37.390;2023-04-03T14:47:19;16.00;;;6.20;;
72601;SDS011;60644;55.858;37.390;2023-04-03T14:49:46;12.75;;;5.50;;
72601;SDS011;60644;55.858;37.390;2023-04-03T14:52:19;14.17;;;6.30;;
72601;SDS011;60644;55.858;37.390;2023-04-03T14:54:46;13.18;;;6.05;;
72601;SDS011;60644;55.858;37.390;2023-04-03T14:57:12;13.15;;;6.10;;
72601;SDS011;60644;55.858;37.390;2023-04-03T14:59:38;14.90;;;5.80;;
72601;SDS011;60644;55.858;37.390;2023-04-03T15:02:10;14.60;;;5.77;;
72601;SDS011;60644;55.858;37.390;2023-04-03T15:04:36;11.60;;;5.88;;
72601;SDS011;60644;55.858;37.390;2023-04-03T15:07:02;14.97;;;6.90;;
72601;SDS011;60644;55.858;37.390;2023-04-03T15:09:28;11.82;;;6.18;;
72601;SDS011;60644;55.858;37.390;2023-04-03T15:11:54;14.15;;;6.43;;
72601;SDS011;60644;55.858;37.390;2023-04-03T15:14:20;15.07;;;5.50;;
72601;SDS011;60644;55.858;37.390;2023-04-03T15:16:46;14.82;;;6.13;;
72601;SDS011;60644;55.858;37.390;2023-04-03T15:19:11;13.77;;;7.10;;
72601;SDS011;60644;55.858;37.390;2023-04-03T15:21:37;15.00;;;6.68;;
72601;SDS011;60644;55.858;37.390;2023-04-03T15:24:03;13.10;;;6.53;;
72601;SDS011;60644;55.858;37.390;2023-04-03T15:26:29;14.83;;;7.67;;
72601;SDS011;60644;55.858;37.390;2023-04-03T15:28:54;18.02;;;7.10;;
72601;SDS011;60644;55.858;37.390;2023-04-03T15:31:20;17.57;;;6.53;;
72601;SDS011;60644;55.858;37.390;2023-04-03T15:33:46;17.70;;;7.28;;
72601;SDS011;60644;55.858;37.390;2023-04-03T15:36:11;14.15;;;7.05;;
72601;SDS011;60644;55.858;37.390;2023-04-03T15:38:37;12.87;;;7.00;;
72601;SDS011;60644;55.858;37.390;2023-04-03T15:41:03;13.50;;;6.90;;
72601;SDS011;60644;55.858;37.390;2023-04-03T15:43:29;15.35;;;6.75;;
72601;SDS011;60644;55.858;37.390;2023-04-03T15:45:58;14.70;;;6.67;;
72601;SDS011;60644;55.858;37.390;2023-04-03T15:48:25;11.93;;;5.68;;
72601;SDS011;60644;55.858;37.390;2023-04-03T15:50:50;14.70;;;6.35;;
72601;SDS011;60644;55.858;37.390;2023-04-03T15:53:16;12.33;;;6.33;;
72601;SDS011;60644;55.858;37.390;2023-04-03T15:55:42;16.40;;;8.37;;